createdAt,value
2022-11-30T00:01:44.341Z,17.77
2022-11-30T00:04:13.177Z,13.97
2022-11-30T00:06:44.132Z,18.50
2022-11-30T00:09:13.290Z,14.63
2022-11-30T00:11:42.017Z,14.43
2022-11-30T00:14:11.993Z,18.70
2022-11-30T00:16:40.548Z,16.20
2022-11-30T00:19:09.251Z,18.10
2022-11-30T00:21:37.864Z,18.23
2022-11-30T00:24:07.361Z,16.97
2022-11-30T00:26:36.404Z,14.43
2022-11-30T00:29:05.179Z,17.43
2022-11-30T00:31:35.220Z,19.83
2022-11-30T00:34:03.811Z,19.30
2022-11-30T00:36:32.411Z,15.13
2022-11-30T00:39:01.038Z,17.30
2022-11-30T00:41:29.629Z,18.10
2022-11-30T00:43:58.225Z,20.17
2022-11-30T00:46:26.834Z,16.37
2022-11-30T00:48:56.877Z,18.07
2022-11-30T00:51:25.552Z,18.57
2022-11-30T00:53:54.262Z,18.70
2022-11-30T00:56:24.818Z,18.77
2022-11-30T00:58:53.851Z,18.47
2022-11-30T01:01:22.477Z,16.10
2022-11-30T01:03:51.214Z,18.87
2022-11-30T01:06:21.289Z,16.87
2022-11-30T01:08:52.445Z,14.60
2022-11-30T01:11:23.941Z,17.50
2022-11-30T01:13:52.801Z,13.77
2022-11-30T01:16:24.052Z,17.70
2022-11-30T01:18:53.048Z,18.67
2022-11-30T01:21:24.987Z,19.53
2022-11-30T01:23:53.950Z,19.23
2022-11-30T01:26:23.353Z,16.97
2022-11-30T01:28:53.269Z,17.00
2022-11-30T01:31:24.278Z,14.37
2022-11-30T01:33:54.866Z,16.90
2022-11-30T01:36:27.020Z,16.00
2022-11-30T01:38:57.092Z,15.70
2022-11-30T01:41:26.905Z,16.10
2022-11-30T01:43:58.099Z,15.40
2022-11-30T01:46:35.135Z,12.57
2022-11-30T01:49:11.328Z,17.20
2022-11-30T01:51:45.592Z,15.80
2022-11-30T01:54:17.845Z,12.47
2022-11-30T01:56:50.950Z,17.90
2022-11-30T01:59:23.039Z,15.20
2022-11-30T02:01:51.881Z,14.00
2022-11-30T02:04:23.896Z,18.00
2022-11-30T02:06:53.965Z,17.17
2022-11-30T02:09:24.808Z,18.13
2022-11-30T02:11:53.596Z,17.40
2022-11-30T02:14:35.129Z,16.93
2022-11-30T02:17:14.022Z,17.23
2022-11-30T02:20:14.200Z,17.20
2022-11-30T02:23:09.872Z,16.03
2022-11-30T02:25:48.464Z,17.67
2022-11-30T02:28:40.031Z,20.10
2022-11-30T02:31:14.113Z,16.50
2022-11-30T02:33:45.042Z,14.80
2022-11-30T02:36:14.164Z,16.13
2022-11-30T02:38:43.857Z,18.67
2022-11-30T02:41:12.883Z,14.60
2022-11-30T02:43:43.155Z,15.40
2022-11-30T02:46:17.476Z,14.73
2022-11-30T02:48:51.547Z,16.23
2022-11-30T02:51:23.995Z,16.87
2022-11-30T02:53:52.930Z,13.47
2022-11-30T02:56:22.147Z,13.47
2022-11-30T02:58:52.594Z,14.63
2022-11-30T03:01:21.258Z,14.87
2022-11-30T03:03:49.877Z,14.27
2022-11-30T03:06:18.525Z,13.57
2022-11-30T03:08:47.103Z,13.93
2022-11-30T03:11:15.794Z,16.93
2022-11-30T03:13:44.390Z,13.70
2022-11-30T03:16:15.322Z,15.20
2022-11-30T03:18:44.129Z,14.40
2022-11-30T03:21:16.591Z,14.27
2022-11-30T03:23:45.524Z,14.83
2022-11-30T03:26:14.172Z,16.80
2022-11-30T03:28:42.904Z,14.80
2022-11-30T03:31:12.934Z,15.57
2022-11-30T03:33:43.900Z,15.37
2022-11-30T03:36:13.972Z,14.13
2022-11-30T03:38:42.774Z,15.70
2022-11-30T03:41:14.849Z,16.37
2022-11-30T03:43:44.584Z,12.73
2022-11-30T03:46:14.201Z,15.30
2022-11-30T03:48:44.284Z,14.23
2022-11-30T03:51:14.366Z,15.93
2022-11-30T03:53:43.100Z,15.10
2022-11-30T03:56:12.922Z,13.47
2022-11-30T03:58:42.916Z,16.40
2022-11-30T04:01:14.198Z,15.00
2022-11-30T04:03:47.285Z,11.27
2022-11-30T04:06:15.913Z,12.43
2022-11-30T04:08:45.366Z,11.17
2022-11-30T04:11:15.775Z,15.90
2022-11-30T04:13:45.044Z,14.60
2022-11-30T04:16:13.996Z,12.90
2022-11-30T04:18:44.176Z,14.30
2022-11-30T04:21:13.107Z,13.70
2022-11-30T04:23:42.702Z,14.27
2022-11-30T04:26:14.059Z,15.30
2022-11-30T04:28:42.899Z,13.77
2022-11-30T04:31:11.743Z,14.60
2022-11-30T04:33:41.027Z,15.23
2022-11-30T04:36:18.723Z,14.53
2022-11-30T04:38:47.842Z,15.07
2022-11-30T04:41:16.510Z,12.67
2022-11-30T04:43:45.808Z,12.73
2022-11-30T04:46:15.145Z,13.80
2022-11-30T04:48:43.983Z,13.97
2022-11-30T04:51:14.043Z,13.43
2022-11-30T04:53:42.803Z,12.03
2022-11-30T04:56:13.074Z,14.43
2022-11-30T04:58:41.873Z,13.27
2022-11-30T05:01:10.516Z,13.37
2022-11-30T05:03:39.274Z,11.47
2022-11-30T05:06:08.213Z,13.97
2022-11-30T05:08:38.278Z,14.30
2022-11-30T05:11:09.195Z,13.97
2022-11-30T05:13:37.888Z,15.77
2022-11-30T05:16:07.285Z,13.60
2022-11-30T05:18:35.981Z,11.23
2022-11-30T05:21:07.484Z,12.17
2022-11-30T05:23:37.531Z,15.03
2022-11-30T05:26:06.453Z,13.13
2022-11-30T05:28:35.143Z,15.00
2022-11-30T05:31:05.355Z,14.60
2022-11-30T05:33:38.654Z,13.20
2022-11-30T05:36:10.927Z,12.40
2022-11-30T05:38:41.139Z,13.83
2022-11-30T05:41:09.784Z,13.43
2022-11-30T05:43:38.495Z,14.43
2022-11-30T05:46:08.783Z,12.00
2022-11-30T05:48:38.109Z,14.60
2022-11-30T05:51:10.054Z,14.17
2022-11-30T05:53:40.500Z,12.97
2022-11-30T05:56:11.724Z,12.67
2022-11-30T05:58:41.205Z,14.13
2022-11-30T06:01:10.025Z,12.47
2022-11-30T06:03:38.745Z,13.97
2022-11-30T06:06:07.882Z,14.13
2022-11-30T06:08:36.695Z,15.17
2022-11-30T06:11:07.158Z,15.30
2022-11-30T06:13:35.877Z,13.80
2022-11-30T06:16:05.722Z,12.63
2022-11-30T06:18:34.856Z,15.50
2022-11-30T06:21:05.235Z,10.37
2022-11-30T06:23:34.736Z,16.00
2022-11-30T06:26:07.098Z,13.97
2022-11-30T06:28:36.348Z,13.50
2022-11-30T06:31:07.924Z,13.10
2022-11-30T06:33:36.907Z,13.40
2022-11-30T06:36:06.104Z,12.93
2022-11-30T06:38:34.738Z,14.80
2022-11-30T06:41:09.352Z,15.33
2022-11-30T06:43:40.056Z,18.38
2022-11-30T06:46:11.313Z,14.83
2022-11-30T06:48:40.374Z,16.07
2022-11-30T06:51:10.062Z,13.80
2022-11-30T06:53:44.090Z,16.73
2022-11-30T06:56:14.209Z,15.50
2022-11-30T06:58:46.006Z,16.03
2022-11-30T07:01:16.348Z,16.07
2022-11-30T07:03:45.931Z,17.17
2022-11-30T07:06:16.970Z,15.63
2022-11-30T07:08:46.113Z,15.97
2022-11-30T07:11:16.335Z,16.77
2022-11-30T07:13:47.810Z,14.63
2022-11-30T07:16:16.536Z,17.17
2022-11-30T07:18:48.369Z,17.00
2022-11-30T07:21:16.887Z,17.70
2022-11-30T07:24:03.513Z,17.73
2022-11-30T07:26:34.157Z,17.27
2022-11-30T07:29:03.006Z,17.63
2022-11-30T07:31:34.344Z,21.80
2022-11-30T07:34:07.126Z,20.83
2022-11-30T07:36:36.770Z,15.80
2022-11-30T07:39:05.894Z,14.50
2022-11-30T07:41:38.742Z,16.77
2022-11-30T07:44:09.205Z,16.07
2022-11-30T07:46:40.391Z,17.57
2022-11-30T07:49:11.034Z,18.37
2022-11-30T07:51:39.742Z,18.23
2022-11-30T07:54:08.398Z,18.23
2022-11-30T07:56:38.422Z,16.00
2022-11-30T07:59:07.105Z,13.20
2022-11-30T08:01:36.128Z,15.53
2022-11-30T08:04:04.831Z,14.97
2022-11-30T08:06:33.558Z,15.27
2022-11-30T08:09:04.081Z,14.67
2022-11-30T08:11:34.891Z,15.97
2022-11-30T08:14:05.734Z,16.17
2022-11-30T08:16:38.761Z,16.23
2022-11-30T08:19:07.755Z,15.00
2022-11-30T08:21:38.065Z,15.43
2022-11-30T08:24:07.192Z,16.40
2022-11-30T08:26:35.880Z,15.27
2022-11-30T08:29:05.841Z,16.17
2022-11-30T08:31:37.041Z,14.67
2022-11-30T08:34:07.844Z,15.70
2022-11-30T08:36:36.767Z,15.60
2022-11-30T08:39:07.283Z,16.03
2022-11-30T08:41:38.921Z,16.13
2022-11-30T08:44:09.002Z,15.97
2022-11-30T08:46:53.887Z,16.23
2022-11-30T08:49:24.793Z,17.30
2022-11-30T08:54:46.893Z,18.57
2022-11-30T08:57:16.397Z,15.93
2022-11-30T08:59:46.312Z,17.97
2022-11-30T09:02:18.514Z,17.10
2022-11-30T09:04:49.607Z,18.97
2022-11-30T09:07:19.646Z,18.57
2022-11-30T09:09:48.480Z,15.80
2022-11-30T09:12:17.133Z,18.60
2022-11-30T09:14:54.005Z,16.80
2022-11-30T09:17:26.274Z,18.70
2022-11-30T09:19:56.026Z,19.57
2022-11-30T09:22:24.728Z,21.23
2022-11-30T09:24:53.315Z,20.87
2022-11-30T09:27:22.422Z,20.17
2022-11-30T09:29:52.358Z,21.47
2022-11-30T09:32:20.923Z,20.83
2022-11-30T09:34:50.898Z,17.37
2022-11-30T09:37:19.949Z,19.53
2022-11-30T09:39:48.540Z,19.83
2022-11-30T09:42:33.174Z,17.43
2022-11-30T09:45:13.864Z,19.43
2022-11-30T09:48:06.983Z,20.13
2022-11-30T09:50:40.778Z,18.37
2022-11-30T09:53:16.767Z,17.23
2022-11-30T09:55:46.048Z,16.73
2022-11-30T09:58:26.719Z,21.40
2022-11-30T10:00:56.814Z,15.13
2022-11-30T10:03:25.867Z,19.17
2022-11-30T10:06:00.473Z,16.97
2022-11-30T10:08:50.258Z,17.47
2022-11-30T10:11:36.143Z,19.30
2022-11-30T10:14:26.183Z,18.47
2022-11-30T10:17:05.749Z,17.33
2022-11-30T10:19:56.106Z,19.13
2022-11-30T10:22:32.160Z,18.57
2022-11-30T10:25:12.854Z,20.30
2022-11-30T10:27:50.935Z,16.93
2022-11-30T10:30:22.516Z,18.93
2022-11-30T10:32:55.005Z,20.07
2022-11-30T10:35:34.756Z,19.80
2022-11-30T10:38:13.122Z,19.70
2022-11-30T10:40:47.451Z,21.00
2022-11-30T10:43:22.500Z,18.03
2022-11-30T10:45:52.252Z,18.97
2022-11-30T10:48:29.849Z,18.77
2022-11-30T10:50:58.772Z,18.53
2022-11-30T10:53:27.513Z,19.43
2022-11-30T10:56:03.951Z,18.23
2022-11-30T10:58:38.419Z,20.00
2022-11-30T11:01:09.954Z,18.63
2022-11-30T11:03:40.167Z,18.47
2022-11-30T11:06:15.731Z,18.00
2022-11-30T11:08:47.593Z,17.37
2022-11-30T11:11:31.224Z,18.27
2022-11-30T11:14:16.364Z,18.00
2022-11-30T11:16:53.527Z,17.87
2022-11-30T11:19:44.155Z,19.57
2022-11-30T11:22:18.883Z,16.43
2022-11-30T11:24:48.634Z,16.53
2022-11-30T11:27:28.710Z,16.30
2022-11-30T11:30:04.657Z,16.77
2022-11-30T11:32:33.934Z,17.57
2022-11-30T11:35:04.312Z,18.57
2022-11-30T11:37:38.351Z,19.37
2022-11-30T11:40:16.688Z,18.73
2022-11-30T11:42:49.679Z,17.00
2022-11-30T11:45:22.559Z,17.80
2022-11-30T11:47:59.773Z,19.00
2022-11-30T11:51:04.968Z,18.83
2022-11-30T11:53:25.966Z,16.03
2022-11-30T11:56:01.049Z,17.80
2022-11-30T11:58:45.395Z,18.27
2022-11-30T12:01:41.792Z,17.13
2022-11-30T12:04:24.612Z,18.57
2022-11-30T12:06:56.829Z,17.60
2022-11-30T12:09:29.651Z,18.57
2022-11-30T12:11:58.309Z,19.43
2022-11-30T12:14:27.872Z,18.13
2022-11-30T12:17:10.814Z,17.67
2022-11-30T12:19:47.341Z,15.13
2022-11-30T12:22:33.709Z,17.90
2022-11-30T12:25:25.191Z,18.40
2022-11-30T12:28:07.749Z,16.30
2022-11-30T12:30:46.328Z,16.00
2022-11-30T12:33:25.404Z,18.07
2022-11-30T12:36:03.854Z,17.57
2022-11-30T12:38:42.869Z,18.43
2022-11-30T12:41:29.212Z,16.10
2022-11-30T12:44:07.749Z,18.43
2022-11-30T12:46:44.046Z,18.53
2022-11-30T12:49:28.949Z,17.23
2022-11-30T12:52:08.000Z,18.10
2022-11-30T12:54:46.464Z,17.90
2022-11-30T12:57:22.441Z,17.33
2022-11-30T13:00:01.267Z,18.63
2022-11-30T13:02:57.505Z,18.47
2022-11-30T13:05:31.712Z,17.67
2022-11-30T13:08:06.882Z,17.77
2022-11-30T13:10:44.814Z,17.73
2022-11-30T13:13:18.120Z,17.00
2022-11-30T13:15:49.704Z,18.20
2022-11-30T13:18:20.554Z,18.33
2022-11-30T13:20:54.096Z,17.47
2022-11-30T13:23:31.827Z,17.83
2022-11-30T13:26:10.056Z,17.87
2022-11-30T13:28:54.252Z,17.53
2022-11-30T13:31:27.000Z,18.67
2022-11-30T13:34:00.119Z,18.27
2022-11-30T13:36:34.168Z,17.37
2022-11-30T13:39:23.576Z,17.70
2022-11-30T13:42:25.892Z,18.83
2022-11-30T13:44:55.091Z,16.90
2022-11-30T13:47:31.253Z,17.23
2022-11-30T13:50:01.835Z,18.20
2022-11-30T13:53:09.609Z,18.67
2022-11-30T13:55:57.804Z,18.43
2022-11-30T13:58:28.938Z,20.00
2022-11-30T14:01:28.679Z,18.90
2022-11-30T14:04:23.590Z,17.67
2022-11-30T14:06:53.321Z,18.20
2022-11-30T14:09:59.629Z,20.33
2022-11-30T14:12:59.949Z,17.43
2022-11-30T14:15:52.171Z,18.10
2022-11-30T14:18:40.491Z,17.03
2022-11-30T14:21:30.139Z,18.00
2022-11-30T14:24:02.246Z,17.17
2022-11-30T14:26:35.997Z,16.77
2022-11-30T14:29:16.868Z,16.37
2022-11-30T14:31:56.662Z,19.07
2022-11-30T14:34:29.266Z,19.03
2022-11-30T14:37:01.691Z,19.10
2022-11-30T14:39:35.394Z,18.10
2022-11-30T14:42:05.744Z,19.17
2022-11-30T14:44:36.102Z,19.10
2022-11-30T14:47:23.524Z,18.47
2022-11-30T14:49:54.839Z,17.23
2022-11-30T14:52:50.918Z,16.93
2022-11-30T14:55:29.751Z,16.37
2022-11-30T14:58:07.537Z,15.63
2022-11-30T15:00:40.640Z,17.57
2022-11-30T15:03:22.128Z,18.00
2022-11-30T15:05:53.101Z,19.17
2022-11-30T15:08:22.559Z,16.13
2022-11-30T15:10:51.750Z,16.40
2022-11-30T15:13:21.585Z,17.37
2022-11-30T15:15:55.207Z,16.23
2022-11-30T15:18:26.161Z,16.53
2022-11-30T15:21:00.011Z,18.90
2022-11-30T15:23:28.973Z,17.37
2022-11-30T15:26:02.202Z,19.10
2022-11-30T15:28:35.060Z,16.13
2022-11-30T15:31:08.051Z,17.97
2022-11-30T15:33:45.029Z,17.03
2022-11-30T15:36:28.242Z,15.90
2022-11-30T15:39:03.552Z,15.97
2022-11-30T15:41:34.676Z,17.10
2022-11-30T15:44:03.479Z,14.93
2022-11-30T15:46:34.909Z,14.93
2022-11-30T15:49:18.068Z,17.50
2022-11-30T15:51:54.503Z,15.87
2022-11-30T15:54:44.469Z,18.27
2022-11-30T15:57:14.474Z,17.53
2022-11-30T15:59:43.097Z,16.87
2022-11-30T16:02:32.119Z,16.83
2022-11-30T16:05:26.936Z,17.10
2022-11-30T16:07:57.423Z,16.13
2022-11-30T16:10:28.764Z,18.60
2022-11-30T16:12:57.593Z,17.53
2022-11-30T16:15:28.423Z,18.17
2022-11-30T16:17:59.869Z,16.93
2022-11-30T16:20:29.848Z,18.03
2022-11-30T16:23:04.007Z,16.43
2022-11-30T16:25:34.577Z,19.37
2022-11-30T16:28:03.750Z,14.23
2022-11-30T16:30:32.426Z,19.60
2022-11-30T16:33:01.016Z,16.67
2022-11-30T16:35:37.705Z,20.20
2022-11-30T16:38:13.897Z,20.73
2022-11-30T16:40:42.807Z,19.70
2022-11-30T16:43:14.076Z,17.23
2022-11-30T16:45:46.742Z,19.87
2022-11-30T16:48:15.723Z,19.53
2022-11-30T16:50:46.064Z,21.00
2022-11-30T16:53:16.080Z,18.00
2022-11-30T16:55:45.372Z,18.57
2022-11-30T16:58:14.264Z,16.90
2022-11-30T17:00:43.028Z,20.50
2022-11-30T17:03:20.628Z,20.33
2022-11-30T17:05:50.704Z,18.17
2022-11-30T17:08:19.406Z,17.67
2022-11-30T17:10:53.048Z,19.77
2022-11-30T17:13:22.181Z,17.13
2022-11-30T17:15:51.025Z,19.30
2022-11-30T17:18:19.663Z,17.43
2022-11-30T17:20:48.357Z,19.23
2022-11-30T17:23:18.259Z,19.27
2022-11-30T17:25:47.277Z,22.13
2022-11-30T17:28:15.992Z,22.27
2022-11-30T17:30:47.486Z,19.70
2022-11-30T17:33:16.128Z,18.87
2022-11-30T17:35:47.761Z,19.40
2022-11-30T17:38:18.057Z,20.03
2022-11-30T17:40:46.691Z,19.77
2022-11-30T17:43:17.995Z,19.97
2022-11-30T17:45:46.664Z,19.60
2022-11-30T17:48:16.695Z,16.90
2022-11-30T17:50:51.509Z,22.67
2022-11-30T17:53:21.462Z,30.10
2022-11-30T17:55:50.051Z,18.47
2022-11-30T17:58:18.696Z,21.50
2022-11-30T18:00:47.334Z,21.00
2022-11-30T18:03:16.052Z,17.60
2022-11-30T18:05:47.617Z,25.70
2022-11-30T18:08:16.248Z,21.87
2022-11-30T18:10:47.773Z,19.37
2022-11-30T18:13:16.332Z,20.80
2022-11-30T18:15:47.971Z,22.23
2022-11-30T18:18:16.813Z,19.13
2022-11-30T18:20:48.171Z,19.17
2022-11-30T18:23:16.728Z,20.37
2022-11-30T18:25:50.554Z,21.50
2022-11-30T18:28:19.180Z,20.97
2022-11-30T18:30:47.871Z,25.03
2022-11-30T18:33:16.488Z,24.33
2022-11-30T18:35:48.235Z,23.83
2022-11-30T18:38:16.865Z,23.47
2022-11-30T18:40:45.769Z,20.73
2022-11-30T18:43:18.269Z,18.77
2022-11-30T18:45:46.913Z,24.43
2022-11-30T18:48:16.206Z,20.93
2022-11-30T18:50:50.548Z,22.97
2022-11-30T18:53:19.262Z,18.63
2022-11-30T18:55:47.970Z,25.80
2022-11-30T18:58:18.022Z,20.73
2022-11-30T19:00:46.682Z,23.90
2022-11-30T19:03:15.973Z,20.47
2022-11-30T19:05:45.313Z,23.30
2022-11-30T19:08:15.817Z,21.53
2022-11-30T19:10:45.040Z,22.30
2022-11-30T19:13:15.433Z,22.10
2022-11-30T19:15:46.099Z,19.07
2022-11-30T19:18:18.191Z,21.90
2022-11-30T19:20:50.524Z,28.10
2022-11-30T19:23:19.212Z,21.43
2022-11-30T19:25:47.912Z,23.27
2022-11-30T19:28:16.592Z,23.30
2022-11-30T19:30:46.717Z,24.23
2022-11-30T19:33:16.150Z,22.47
2022-11-30T19:35:47.576Z,24.07
2022-11-30T19:38:16.292Z,20.87
2022-11-30T19:40:48.128Z,19.83
2022-11-30T19:43:16.783Z,27.17
2022-11-30T19:45:49.641Z,26.87
2022-11-30T19:48:18.386Z,24.50
2022-11-30T19:50:47.110Z,24.73
2022-11-30T19:53:15.963Z,23.40
2022-11-30T19:55:47.541Z,21.00
2022-11-30T19:58:16.169Z,22.53
2022-11-30T20:00:47.370Z,23.77
2022-11-30T20:03:17.546Z,22.27
2022-11-30T20:05:50.370Z,24.00
2022-11-30T20:08:19.437Z,24.73
2022-11-30T20:10:50.163Z,24.33
2022-11-30T20:13:18.914Z,24.03
2022-11-30T20:15:47.630Z,22.63
2022-11-30T20:18:17.650Z,23.83
2022-11-30T20:20:46.403Z,25.00
2022-11-30T20:23:15.496Z,24.00
2022-11-30T20:25:44.405Z,25.90
2022-11-30T20:28:13.107Z,23.87
2022-11-30T20:30:41.845Z,26.87
2022-11-30T20:33:10.531Z,27.13
2022-11-30T20:35:40.694Z,23.43
2022-11-30T20:38:09.433Z,26.30
2022-11-30T20:40:39.973Z,25.30
2022-11-30T20:43:08.608Z,21.87
2022-11-30T20:45:37.287Z,23.37
2022-11-30T20:48:06.200Z,22.70
2022-11-30T20:50:34.950Z,23.23
2022-11-30T20:53:05.186Z,23.73
2022-11-30T20:55:33.946Z,21.40
2022-11-30T20:58:03.452Z,25.10
2022-11-30T21:00:32.407Z,22.63
2022-11-30T21:03:01.337Z,22.13
2022-11-30T21:05:30.038Z,21.17
2022-11-30T21:07:58.770Z,22.13
2022-11-30T21:10:28.863Z,24.43
2022-11-30T21:12:58.005Z,22.27
2022-11-30T21:15:26.753Z,23.00
2022-11-30T21:17:55.553Z,23.20
2022-11-30T21:20:24.370Z,21.03
2022-11-30T21:22:53.259Z,24.20
2022-11-30T21:25:21.943Z,24.23
2022-11-30T21:27:53.937Z,22.23
2022-11-30T21:30:22.680Z,23.20
2022-11-30T21:32:51.376Z,24.80
2022-11-30T21:35:20.060Z,25.80
2022-11-30T21:37:48.783Z,22.47
2022-11-30T21:40:17.590Z,22.70
2022-11-30T21:42:46.388Z,23.50
2022-11-30T21:45:16.441Z,21.90
2022-11-30T21:47:45.778Z,22.20
2022-11-30T21:50:14.979Z,21.03
2022-11-30T21:52:44.270Z,23.40
2022-11-30T21:55:13.219Z,24.80
2022-11-30T21:57:42.191Z,24.60
2022-11-30T22:00:14.533Z,24.70
2022-11-30T22:02:48.574Z,25.37
2022-11-30T22:05:17.439Z,24.20
2022-11-30T22:07:47.428Z,23.27
2022-11-30T22:10:16.304Z,22.03
2022-11-30T22:12:45.777Z,24.30
2022-11-30T22:15:14.758Z,22.23
2022-11-30T22:17:45.604Z,23.67
2022-11-30T22:20:14.533Z,21.37
2022-11-30T22:22:43.312Z,19.93
2022-11-30T22:25:11.967Z,19.77
2022-11-30T22:27:40.608Z,21.13
2022-11-30T22:30:10.296Z,20.93
2022-11-30T22:32:43.355Z,19.23
2022-11-30T22:35:15.208Z,19.43
2022-11-30T22:37:46.440Z,20.30
2022-11-30T22:40:16.082Z,20.37
2022-11-30T22:42:47.766Z,20.13
2022-11-30T22:45:16.461Z,17.17
2022-11-30T22:47:47.848Z,20.20
2022-11-30T22:50:18.066Z,19.47
2022-11-30T22:53:02.527Z,16.97
2022-11-30T22:55:33.689Z,21.03
2022-11-30T22:58:02.363Z,18.60
2022-11-30T23:00:31.127Z,20.93
2022-11-30T23:03:00.046Z,22.73
2022-11-30T23:05:30.423Z,20.17
2022-11-30T23:07:59.133Z,21.10
2022-11-30T23:10:28.049Z,20.37
2022-11-30T23:13:00.299Z,24.20
2022-11-30T23:15:29.202Z,21.40
2022-11-30T23:17:57.842Z,21.83
2022-11-30T23:20:26.707Z,23.37
2022-11-30T23:22:56.772Z,20.40
2022-11-30T23:25:25.482Z,21.30
2022-11-30T23:27:54.210Z,20.07
2022-11-30T23:30:22.875Z,21.53
2022-11-30T23:32:55.599Z,22.80
2022-11-30T23:35:25.375Z,20.37
2022-11-30T23:37:54.120Z,20.70
2022-11-30T23:40:24.187Z,20.57
2022-11-30T23:42:53.590Z,22.43
2022-11-30T23:45:23.023Z,21.43
2022-11-30T23:47:51.713Z,22.67
2022-11-30T23:50:20.520Z,19.37
2022-11-30T23:52:49.305Z,22.73
2022-11-30T23:55:18.148Z,20.80
2022-11-30T23:57:48.934Z,20.90
